sensor_id;sensor_type;location;lat;lon;timestamp;temperature;humidity
7572;DHT22;3827;49.928;8.548;2023-05-24T00:02:09;9.80;99.90
7572;DHT22;3827;49.928;8.548;2023-05-24T00:04:38;9.80;99.90
7572;DHT22;3827;49.928;8.548;2023-05-24T00:07:05;9.80;99.90
7572;DHT22;3827;49.928;8.548;2023-05-24T00:09:32;9.80;99.90
7572;DHT22;3827;49.928;8.548;2023-05-24T00:12:00;9.90;99.90
7572;DHT22;3827;49.928;8.548;2023-05-24T00:14:27;9.70;99.90
7572;DHT22;3827;49.928;8.548;2023-05-24T00:16:54;9.70;99.90
7572;DHT22;3827;49.928;8.548;2023-05-24T00:19:21;9.70;99.90
7572;DHT22;3827;49.928;8.548;2023-05-24T00:21:48;9.70;99.90
7572;DHT22;3827;49.928;8.548;2023-05-24T00:24:15;9.60;99.90
7572;DHT22;3827;49.928;8.548;2023-05-24T00:26:42;9.60;99.90
7572;DHT22;3827;49.928;8.548;2023-05-24T00:29:10;9.50;99.90
7572;DHT22;3827;49.928;8.548;2023-05-24T00:31:37;9.70;99.90
7572;DHT22;3827;49.928;8.548;2023-05-24T00:34:04;9.50;99.90
7572;DHT22;3827;49.928;8.548;2023-05-24T00:36:31;9.80;99.90
7572;DHT22;3827;49.928;8.548;2023-05-24T00:38:58;9.80;99.90
7572;DHT22;3827;49.928;8.548;2023-05-24T00:41:25;9.60;99.90
7572;DHT22;3827;49.928;8.548;2023-05-24T00:43:52;9.50;99.90
7572;DHT22;3827;49.928;8.548;2023-05-24T00:46:22;9.50;99.90
7572;DHT22;3827;49.928;8.548;2023-05-24T00:48:51;9.40;99.90
7572;DHT22;3827;49.928;8.548;2023-05-24T00:51:18;9.40;99.90
7572;DHT22;3827;49.928;8.548;2023-05-24T00:53:46;9.40;99.90
7572;DHT22;3827;49.928;8.548;2023-05-24T00:56:15;9.40;99.90
7572;DHT22;3827;49.928;8.548;2023-05-24T00:58:42;9.40;99.90
7572;DHT22;3827;49.928;8.548;2023-05-24T01:01:09;9.40;99.90
7572;DHT22;3827;49.928;8.548;2023-05-24T01:03:37;9.30;99.90
7572;DHT22;3827;49.928;8.548;2023-05-24T01:06:05;9.40;99.90
7572;DHT22;3827;49.928;8.548;2023-05-24T01:11:34;9.30;99.90
7572;DHT22;3827;49.928;8.548;2023-05-24T01:14:14;9.30;99.90
7572;DHT22;3827;49.928;8.548;2023-05-24T01:16:48;9.30;99.90
7572;DHT22;3827;49.928;8.548;2023-05-24T01:19:39;9.10;99.90
7572;DHT22;3827;49.928;8.548;2023-05-24T01:22:27;9.10;99.90
7572;DHT22;3827;49.928;8.548;2023-05-24T01:25:01;9.10;99.90
7572;DHT22;3827;49.928;8.548;2023-05-24T01:27:32;9.10;99.90
7572;DHT22;3827;49.928;8.548;2023-05-24T01:30:00;9.10;99.90
7572;DHT22;3827;49.928;8.548;2023-05-24T01:32:27;9.10;99.90
7572;DHT22;3827;49.928;8.548;2023-05-24T01:34:54;9.10;99.90
7572;DHT22;3827;49.928;8.548;2023-05-24T01:37:21;9.10;99.90
7572;DHT22;3827;49.928;8.548;2023-05-24T01:39:48;9.00;99.90
7572;DHT22;3827;49.928;8.548;2023-05-24T01:42:23;9.10;99.90
7572;DHT22;3827;49.928;8.548;2023-05-24T01:44:59;9.10;99.90
7572;DHT22;3827;49.928;8.548;2023-05-24T01:47:35;9.10;99.90
7572;DHT22;3827;49.928;8.548;2023-05-24T01:50:10;9.50;99.90
7572;DHT22;3827;49.928;8.548;2023-05-24T01:52:43;10.30;99.90
7572;DHT22;3827;49.928;8.548;2023-05-24T01:55:13;9.10;99.90
7572;DHT22;3827;49.928;8.548;2023-05-24T01:57:43;9.10;99.90
7572;DHT22;3827;49.928;8.548;2023-05-24T02:00:14;9.10;99.90
7572;DHT22;3827;49.928;8.548;2023-05-24T02:02:41;9.20;99.90
7572;DHT22;3827;49.928;8.548;2023-05-24T02:05:09;9.10;99.90
7572;DHT22;3827;49.928;8.548;2023-05-24T02:07:36;9.50;99.90
7572;DHT22;3827;49.928;8.548;2023-05-24T02:10:04;9.20;99.90
7572;DHT22;3827;49.928;8.548;2023-05-24T02:12:31;9.30;99.90
7572;DHT22;3827;49.928;8.548;2023-05-24T02:14:57;9.30;99.90
7572;DHT22;3827;49.928;8.548;2023-05-24T02:17:26;9.30;99.90
7572;DHT22;3827;49.928;8.548;2023-05-24T02:19:52;9.30;99.90
7572;DHT22;3827;49.928;8.548;2023-05-24T02:22:19;9.30;99.90
7572;DHT22;3827;49.928;8.548;2023-05-24T02:24:46;9.30;99.90
7572;DHT22;3827;49.928;8.548;2023-05-24T02:27:13;9.40;99.90
7572;DHT22;3827;49.928;8.548;2023-05-24T02:29:40;9.40;99.90
7572;DHT22;3827;49.928;8.548;2023-05-24T02:32:07;9.40;99.90
7572;DHT22;3827;49.928;8.548;2023-05-24T02:34:35;9.40;99.90
7572;DHT22;3827;49.928;8.548;2023-05-24T02:37:02;9.50;99.90
7572;DHT22;3827;49.928;8.548;2023-05-24T02:39:29;9.40;99.90
7572;DHT22;3827;49.928;8.548;2023-05-24T02:41:56;9.40;99.90
7572;DHT22;3827;49.928;8.548;2023-05-24T02:44:23;9.40;99.90
7572;DHT22;3827;49.928;8.548;2023-05-24T02:46:50;9.30;99.90
7572;DHT22;3827;49.928;8.548;2023-05-24T02:49:16;9.40;99.90
7572;DHT22;3827;49.928;8.548;2023-05-24T02:51:44;9.30;99.90
7572;DHT22;3827;49.928;8.548;2023-05-24T02:54:11;9.30;99.90
7572;DHT22;3827;49.928;8.548;2023-05-24T02:56:38;9.30;99.90
7572;DHT22;3827;49.928;8.548;2023-05-24T02:59:05;9.30;99.90
7572;DHT22;3827;49.928;8.548;2023-05-24T03:01:32;9.30;99.90
7572;DHT22;3827;49.928;8.548;2023-05-24T03:04:00;9.20;99.90
7572;DHT22;3827;49.928;8.548;2023-05-24T03:06:26;9.20;99.90
7572;DHT22;3827;49.928;8.548;2023-05-24T03:08:55;9.20;99.90
7572;DHT22;3827;49.928;8.548;2023-05-24T03:11:23;9.20;99.90
7572;DHT22;3827;49.928;8.548;2023-05-24T03:13:50;9.30;99.90
7572;DHT22;3827;49.928;8.548;2023-05-24T03:16:17;9.20;99.90
7572;DHT22;3827;49.928;8.548;2023-05-24T03:18:44;9.20;99.90
7572;DHT22;3827;49.928;8.548;2023-05-24T03:21:11;9.20;99.90
7572;DHT22;3827;49.928;8.548;2023-05-24T03:23:38;9.20;99.90
7572;DHT22;3827;49.928;8.548;2023-05-24T03:26:09;9.30;99.90
7572;DHT22;3827;49.928;8.548;2023-05-24T03:28:37;9.20;99.90
7572;DHT22;3827;49.928;8.548;2023-05-24T03:31:05;9.30;99.90
7572;DHT22;3827;49.928;8.548;2023-05-24T03:33:32;9.30;99.90
7572;DHT22;3827;49.928;8.548;2023-05-24T03:35:58;9.30;99.90
7572;DHT22;3827;49.928;8.548;2023-05-24T03:38:25;9.30;99.90
7572;DHT22;3827;49.928;8.548;2023-05-24T03:40:52;9.40;99.90
7572;DHT22;3827;49.928;8.548;2023-05-24T03:43:20;9.40;99.90
7572;DHT22;3827;49.928;8.548;2023-05-24T03:45:47;9.30;99.90
7572;DHT22;3827;49.928;8.548;2023-05-24T03:48:14;9.30;99.90
7572;DHT22;3827;49.928;8.548;2023-05-24T03:50:40;9.30;99.90
7572;DHT22;3827;49.928;8.548;2023-05-24T03:53:07;9.30;99.90
7572;DHT22;3827;49.928;8.548;2023-05-24T03:55:34;9.40;99.90
7572;DHT22;3827;49.928;8.548;2023-05-24T03:58:01;9.40;99.90
7572;DHT22;3827;49.928;8.548;2023-05-24T04:00:29;9.40;99.90
7572;DHT22;3827;49.928;8.548;2023-05-24T04:02:56;9.30;99.90
7572;DHT22;3827;49.928;8.548;2023-05-24T04:05:23;9.20;99.90
7572;DHT22;3827;49.928;8.548;2023-05-24T04:07:51;9.10;99.90
7572;DHT22;3827;49.928;8.548;2023-05-24T04:10:18;9.00;99.90
7572;DHT22;3827;49.928;8.548;2023-05-24T04:12:45;9.00;99.90
7572;DHT22;3827;49.928;8.548;2023-05-24T04:15:12;8.90;99.90
7572;DHT22;3827;49.928;8.548;2023-05-24T04:17:43;8.90;99.90
7572;DHT22;3827;49.928;8.548;2023-05-24T04:20:10;8.80;99.90
7572;DHT22;3827;49.928;8.548;2023-05-24T04:22:37;8.80;99.90
7572;DHT22;3827;49.928;8.548;2023-05-24T04:25:05;8.70;99.90
7572;DHT22;3827;49.928;8.548;2023-05-24T04:27:32;8.70;99.90
7572;DHT22;3827;49.928;8.548;2023-05-24T04:30:00;8.60;99.90
7572;DHT22;3827;49.928;8.548;2023-05-24T04:32:27;8.60;99.90
7572;DHT22;3827;49.928;8.548;2023-05-24T04:34:56;8.60;99.90
7572;DHT22;3827;49.928;8.548;2023-05-24T04:37:23;9.00;99.90
7572;DHT22;3827;49.928;8.548;2023-05-24T04:39:50;8.50;99.90
7572;DHT22;3827;49.928;8.548;2023-05-24T04:42:17;8.60;99.90
7572;DHT22;3827;49.928;8.548;2023-05-24T04:44:44;8.60;99.90
7572;DHT22;3827;49.928;8.548;2023-05-24T04:47:10;8.60;99.90
7572;DHT22;3827;49.928;8.548;2023-05-24T04:49:37;8.70;99.90
7572;DHT22;3827;49.928;8.548;2023-05-24T04:52:06;8.70;99.90
7572;DHT22;3827;49.928;8.548;2023-05-24T04:54:33;8.70;99.90
7572;DHT22;3827;49.928;8.548;2023-05-24T04:57:00;8.70;99.90
7572;DHT22;3827;49.928;8.548;2023-05-24T04:59:27;8.80;99.90
7572;DHT22;3827;49.928;8.548;2023-05-24T05:01:53;8.80;99.90
7572;DHT22;3827;49.928;8.548;2023-05-24T05:04:20;8.80;99.90
7572;DHT22;3827;49.928;8.548;2023-05-24T05:06:47;8.80;99.90
7572;DHT22;3827;49.928;8.548;2023-05-24T05:09:15;8.90;99.90
7572;DHT22;3827;49.928;8.548;2023-05-24T05:11:44;8.90;99.90
7572;DHT22;3827;49.928;8.548;2023-05-24T05:14:11;8.90;99.90
7572;DHT22;3827;49.928;8.548;2023-05-24T05:16:38;9.00;99.90
7572;DHT22;3827;49.928;8.548;2023-05-24T05:19:05;9.10;99.90
7572;DHT22;3827;49.928;8.548;2023-05-24T05:21:33;9.10;99.90
7572;DHT22;3827;49.928;8.548;2023-05-24T05:24:01;9.10;99.90
7572;DHT22;3827;49.928;8.548;2023-05-24T05:26:29;9.20;99.90
7572;DHT22;3827;49.928;8.548;2023-05-24T05:28:56;9.20;99.90
7572;DHT22;3827;49.928;8.548;2023-05-24T05:31:24;9.20;99.90
7572;DHT22;3827;49.928;8.548;2023-05-24T05:33:50;9.20;99.90
7572;DHT22;3827;49.928;8.548;2023-05-24T05:36:17;9.30;99.90
7572;DHT22;3827;49.928;8.548;2023-05-24T05:38:44;9.30;99.90
7572;DHT22;3827;49.928;8.548;2023-05-24T05:41:11;9.40;99.90
7572;DHT22;3827;49.928;8.548;2023-05-24T05:43:39;9.50;99.90
7572;DHT22;3827;49.928;8.548;2023-05-24T05:46:06;9.50;99.90
7572;DHT22;3827;49.928;8.548;2023-05-24T05:48:32;9.60;99.90
7572;DHT22;3827;49.928;8.548;2023-05-24T05:50:59;9.60;99.90
7572;DHT22;3827;49.928;8.548;2023-05-24T05:53:26;9.70;99.90
7572;DHT22;3827;49.928;8.548;2023-05-24T05:55:53;9.70;99.90
7572;DHT22;3827;49.928;8.548;2023-05-24T05:58:20;10.00;99.90
7572;DHT22;3827;49.928;8.548;2023-05-24T06:00:48;9.80;99.90
7572;DHT22;3827;49.928;8.548;2023-05-24T06:03:15;9.80;99.90
7572;DHT22;3827;49.928;8.548;2023-05-24T06:05:42;9.80;99.90
7572;DHT22;3827;49.928;8.548;2023-05-24T06:08:08;9.80;99.90
7572;DHT22;3827;49.928;8.548;2023-05-24T06:10:35;9.80;99.90
7572;DHT22;3827;49.928;8.548;2023-05-24T06:13:02;9.90;99.90
7572;DHT22;3827;49.928;8.548;2023-05-24T06:15:29;9.90;99.90
7572;DHT22;3827;49.928;8.548;2023-05-24T06:17:59;10.00;99.90
7572;DHT22;3827;49.928;8.548;2023-05-24T06:20:26;10.00;99.90
7572;DHT22;3827;49.928;8.548;2023-05-24T06:22:53;10.00;99.90
7572;DHT22;3827;49.928;8.548;2023-05-24T06:25:21;10.00;99.90
7572;DHT22;3827;49.928;8.548;2023-05-24T06:27:49;9.90;99.90
7572;DHT22;3827;49.928;8.548;2023-05-24T06:30:16;10.00;99.90
7572;DHT22;3827;49.928;8.548;2023-05-24T06:32:43;10.00;99.90
7572;DHT22;3827;49.928;8.548;2023-05-24T06:35:11;10.10;99.90
7572;DHT22;3827;49.928;8.548;2023-05-24T06:37:38;10.20;99.90
7572;DHT22;3827;49.928;8.548;2023-05-24T06:40:06;10.30;99.90
7572;DHT22;3827;49.928;8.548;2023-05-24T06:42:34;10.40;99.90
7572;DHT22;3827;49.928;8.548;2023-05-24T06:45:01;10.50;99.90
7572;DHT22;3827;49.928;8.548;2023-05-24T06:47:28;10.60;99.90
7572;DHT22;3827;49.928;8.548;2023-05-24T06:49:55;10.70;99.90
7572;DHT22;3827;49.928;8.548;2023-05-24T06:52:23;10.70;99.90
7572;DHT22;3827;49.928;8.548;2023-05-24T06:54:49;10.90;99.90
7572;DHT22;3827;49.928;8.548;2023-05-24T06:57:16;11.10;99.90
7572;DHT22;3827;49.928;8.548;2023-05-24T06:59:43;10.90;99.90
7572;DHT22;3827;49.928;8.548;2023-05-24T07:02:10;11.00;99.90
7572;DHT22;3827;49.928;8.548;2023-05-24T07:04:37;11.10;99.90
7572;DHT22;3827;49.928;8.548;2023-05-24T07:07:05;11.20;99.90
7572;DHT22;3827;49.928;8.548;2023-05-24T07:09:33;11.20;99.90
7572;DHT22;3827;49.928;8.548;2023-05-24T07:12:00;11.20;99.90
7572;DHT22;3827;49.928;8.548;2023-05-24T07:14:28;11.30;99.90
7572;DHT22;3827;49.928;8.548;2023-05-24T07:16:55;11.30;99.90
7572;DHT22;3827;49.928;8.548;2023-05-24T07:19:24;11.40;99.90
7572;DHT22;3827;49.928;8.548;2023-05-24T07:21:53;11.40;99.90
7572;DHT22;3827;49.928;8.548;2023-05-24T07:24:20;11.30;99.90
7572;DHT22;3827;49.928;8.548;2023-05-24T07:26:50;11.60;99.90
7572;DHT22;3827;49.928;8.548;2023-05-24T07:29:18;11.80;99.90
7572;DHT22;3827;49.928;8.548;2023-05-24T07:31:45;11.80;99.90
7572;DHT22;3827;49.928;8.548;2023-05-24T07:34:12;11.90;99.90
7572;DHT22;3827;49.928;8.548;2023-05-24T07:36:39;12.00;99.90
7572;DHT22;3827;49.928;8.548;2023-05-24T07:39:06;11.90;99.90
7572;DHT22;3827;49.928;8.548;2023-05-24T07:41:34;11.70;99.90
7572;DHT22;3827;49.928;8.548;2023-05-24T07:44:03;11.90;99.90
7572;DHT22;3827;49.928;8.548;2023-05-24T07:46:29;12.00;99.90
7572;DHT22;3827;49.928;8.548;2023-05-24T07:48:57;12.20;99.90
7572;DHT22;3827;49.928;8.548;2023-05-24T07:51:24;12.40;99.90
7572;DHT22;3827;49.928;8.548;2023-05-24T07:53:51;12.50;99.90
7572;DHT22;3827;49.928;8.548;2023-05-24T07:56:18;13.00;99.90
7572;DHT22;3827;49.928;8.548;2023-05-24T07:58:45;13.20;99.90
7572;DHT22;3827;49.928;8.548;2023-05-24T08:01:15;13.30;99.90
7572;DHT22;3827;49.928;8.548;2023-05-24T08:03:42;13.10;99.90
7572;DHT22;3827;49.928;8.548;2023-05-24T08:06:10;12.80;99.90
7572;DHT22;3827;49.928;8.548;2023-05-24T08:08:38;12.40;99.90
7572;DHT22;3827;49.928;8.548;2023-05-24T08:11:05;12.50;99.90
7572;DHT22;3827;49.928;8.548;2023-05-24T08:13:32;12.60;99.90
7572;DHT22;3827;49.928;8.548;2023-05-24T08:16:00;12.80;99.90
7572;DHT22;3827;49.928;8.548;2023-05-24T08:18:28;12.90;99.90
7572;DHT22;3827;49.928;8.548;2023-05-24T08:20:55;12.90;99.90
7572;DHT22;3827;49.928;8.548;2023-05-24T08:23:22;13.50;99.90
7572;DHT22;3827;49.928;8.548;2023-05-24T08:25:48;13.20;99.90
7572;DHT22;3827;49.928;8.548;2023-05-24T08:28:15;13.20;99.90
7572;DHT22;3827;49.928;8.548;2023-05-24T08:30:42;13.30;99.90
7572;DHT22;3827;49.928;8.548;2023-05-24T08:33:09;13.90;99.90
7572;DHT22;3827;49.928;8.548;2023-05-24T08:35:37;14.20;99.90
7572;DHT22;3827;49.928;8.548;2023-05-24T08:38:05;13.90;99.90
7572;DHT22;3827;49.928;8.548;2023-05-24T08:40:33;14.10;99.90
7572;DHT22;3827;49.928;8.548;2023-05-24T08:43:00;13.90;99.90
7572;DHT22;3827;49.928;8.548;2023-05-24T08:45:29;13.90;99.90
7572;DHT22;3827;49.928;8.548;2023-05-24T08:47:56;13.80;99.90
7572;DHT22;3827;49.928;8.548;2023-05-24T08:50:24;13.70;99.90
7572;DHT22;3827;49.928;8.548;2023-05-24T08:52:53;13.70;99.90
7572;DHT22;3827;49.928;8.548;2023-05-24T08:55:21;14.30;99.90
7572;DHT22;3827;49.928;8.548;2023-05-24T08:57:48;15.00;99.90
7572;DHT22;3827;49.928;8.548;2023-05-24T09:00:16;15.40;99.90
7572;DHT22;3827;49.928;8.548;2023-05-24T09:02:45;15.10;99.90
7572;DHT22;3827;49.928;8.548;2023-05-24T09:05:13;14.80;99.90
7572;DHT22;3827;49.928;8.548;2023-05-24T09:07:43;16.00;99.90
7572;DHT22;3827;49.928;8.548;2023-05-24T09:10:12;14.50;99.90
7572;DHT22;3827;49.928;8.548;2023-05-24T09:12:42;14.60;99.90
7572;DHT22;3827;49.928;8.548;2023-05-24T09:15:10;13.90;99.90
7572;DHT22;3827;49.928;8.548;2023-05-24T09:17:37;14.10;99.90
7572;DHT22;3827;49.928;8.548;2023-05-24T09:20:06;14.10;99.90
7572;DHT22;3827;49.928;8.548;2023-05-24T09:22:33;14.00;99.90
7572;DHT22;3827;49.928;8.548;2023-05-24T09:25:03;14.20;99.90
7572;DHT22;3827;49.928;8.548;2023-05-24T09:27:32;14.40;99.90
7572;DHT22;3827;49.928;8.548;2023-05-24T09:30:00;14.60;99.90
7572;DHT22;3827;49.928;8.548;2023-05-24T09:32:28;14.50;99.90
7572;DHT22;3827;49.928;8.548;2023-05-24T09:34:57;14.10;99.90
7572;DHT22;3827;49.928;8.548;2023-05-24T09:37:25;14.20;99.90
7572;DHT22;3827;49.928;8.548;2023-05-24T09:39:54;14.60;99.90
7572;DHT22;3827;49.928;8.548;2023-05-24T09:42:23;14.60;99.90
7572;DHT22;3827;49.928;8.548;2023-05-24T09:44:59;14.50;99.90
7572;DHT22;3827;49.928;8.548;2023-05-24T09:47:30;14.80;99.90
7572;DHT22;3827;49.928;8.548;2023-05-24T09:49:58;14.80;99.90
7572;DHT22;3827;49.928;8.548;2023-05-24T09:52:25;14.30;99.90
7572;DHT22;3827;49.928;8.548;2023-05-24T09:54:52;14.70;99.90
7572;DHT22;3827;49.928;8.548;2023-05-24T09:57:19;15.10;99.90
7572;DHT22;3827;49.928;8.548;2023-05-24T09:59:48;15.10;99.90
7572;DHT22;3827;49.928;8.548;2023-05-24T10:02:16;15.30;99.90
7572;DHT22;3827;49.928;8.548;2023-05-24T10:04:45;15.30;99.90
7572;DHT22;3827;49.928;8.548;2023-05-24T10:07:12;15.60;99.90
7572;DHT22;3827;49.928;8.548;2023-05-24T10:09:41;16.00;99.90
7572;DHT22;3827;49.928;8.548;2023-05-24T10:12:10;16.10;99.90
7572;DHT22;3827;49.928;8.548;2023-05-24T10:17:11;16.30;99.90
7572;DHT22;3827;49.928;8.548;2023-05-24T10:19:39;16.90;99.90
7572;DHT22;3827;49.928;8.548;2023-05-24T10:22:07;17.30;99.90
7572;DHT22;3827;49.928;8.548;2023-05-24T10:24:38;16.70;99.90
7572;DHT22;3827;49.928;8.548;2023-05-24T10:27:08;16.50;99.90
7572;DHT22;3827;49.928;8.548;2023-05-24T10:29:46;17.20;99.90
7572;DHT22;3827;49.928;8.548;2023-05-24T10:32:16;16.00;99.90
7572;DHT22;3827;49.928;8.548;2023-05-24T10:34:45;16.40;99.90
7572;DHT22;3827;49.928;8.548;2023-05-24T10:37:13;16.90;99.90
7572;DHT22;3827;49.928;8.548;2023-05-24T10:39:42;16.80;99.90
7572;DHT22;3827;49.928;8.548;2023-05-24T10:42:09;17.50;99.90
7572;DHT22;3827;49.928;8.548;2023-05-24T10:44:38;18.10;99.90
7572;DHT22;3827;49.928;8.548;2023-05-24T10:47:09;17.80;99.90
7572;DHT22;3827;49.928;8.548;2023-05-24T10:49:37;17.70;99.90
7572;DHT22;3827;49.928;8.548;2023-05-24T10:52:08;18.40;99.90
7572;DHT22;3827;49.928;8.548;2023-05-24T10:54:35;18.40;99.90
7572;DHT22;3827;49.928;8.548;2023-05-24T10:57:04;17.80;99.90
7572;DHT22;3827;49.928;8.548;2023-05-24T10:59:33;17.60;99.90
7572;DHT22;3827;49.928;8.548;2023-05-24T11:02:03;17.20;99.90
7572;DHT22;3827;49.928;8.548;2023-05-24T11:04:31;17.40;99.90
7572;DHT22;3827;49.928;8.548;2023-05-24T11:07:03;18.00;99.90
7572;DHT22;3827;49.928;8.548;2023-05-24T11:09:31;18.50;99.90
7572;DHT22;3827;49.928;8.548;2023-05-24T11:12:05;17.90;99.90
7572;DHT22;3827;49.928;8.548;2023-05-24T11:14:35;18.20;99.90
7572;DHT22;3827;49.928;8.548;2023-05-24T11:17:03;18.50;99.90
7572;DHT22;3827;49.928;8.548;2023-05-24T11:19:32;19.40;99.90
7572;DHT22;3827;49.928;8.548;2023-05-24T11:22:01;19.50;99.90
7572;DHT22;3827;49.928;8.548;2023-05-24T11:24:28;19.60;99.90
7572;DHT22;3827;49.928;8.548;2023-05-24T11:26:58;18.80;99.90
7572;DHT22;3827;49.928;8.548;2023-05-24T11:29:27;19.50;99.90
7572;DHT22;3827;49.928;8.548;2023-05-24T11:31:55;20.10;99.90
7572;DHT22;3827;49.928;8.548;2023-05-24T11:34:23;19.70;99.90
7572;DHT22;3827;49.928;8.548;2023-05-24T11:36:51;19.80;99.90
7572;DHT22;3827;49.928;8.548;2023-05-24T11:39:19;19.90;99.90
7572;DHT22;3827;49.928;8.548;2023-05-24T11:41:48;19.70;99.90
7572;DHT22;3827;49.928;8.548;2023-05-24T11:44:17;19.90;99.90
7572;DHT22;3827;49.928;8.548;2023-05-24T11:46:45;20.10;99.90
7572;DHT22;3827;49.928;8.548;2023-05-24T11:49:12;19.00;99.90
7572;DHT22;3827;49.928;8.548;2023-05-24T11:51:40;19.10;99.90
7572;DHT22;3827;49.928;8.548;2023-05-24T11:54:07;19.50;99.90
7572;DHT22;3827;49.928;8.548;2023-05-24T11:56:34;19.80;99.90
7572;DHT22;3827;49.928;8.548;2023-05-24T11:59:10;20.50;99.90
7572;DHT22;3827;49.928;8.548;2023-05-24T12:01:41;20.10;99.90
7572;DHT22;3827;49.928;8.548;2023-05-24T12:04:08;20.20;99.90
7572;DHT22;3827;49.928;8.548;2023-05-24T12:06:37;18.70;99.90
7572;DHT22;3827;49.928;8.548;2023-05-24T12:09:04;19.20;99.90
7572;DHT22;3827;49.928;8.548;2023-05-24T12:11:34;20.60;99.90
7572;DHT22;3827;49.928;8.548;2023-05-24T12:14:03;19.40;99.90
7572;DHT22;3827;49.928;8.548;2023-05-24T12:16:30;19.70;99.90
7572;DHT22;3827;49.928;8.548;2023-05-24T12:19:00;20.00;99.90
7572;DHT22;3827;49.928;8.548;2023-05-24T12:21:29;20.60;99.90
7572;DHT22;3827;49.928;8.548;2023-05-24T12:24:03;21.00;99.90
7572;DHT22;3827;49.928;8.548;2023-05-24T12:26:34;21.60;99.90
7572;DHT22;3827;49.928;8.548;2023-05-24T12:29:02;21.20;99.90
7572;DHT22;3827;49.928;8.548;2023-05-24T12:31:29;21.10;99.90
7572;DHT22;3827;49.928;8.548;2023-05-24T12:33:56;20.70;99.90
7572;DHT22;3827;49.928;8.548;2023-05-24T12:36:26;20.80;99.90
7572;DHT22;3827;49.928;8.548;2023-05-24T12:38:56;21.90;99.90
7572;DHT22;3827;49.928;8.548;2023-05-24T12:41:23;21.60;99.90
7572;DHT22;3827;49.928;8.548;2023-05-24T12:43:52;21.00;99.90
7572;DHT22;3827;49.928;8.548;2023-05-24T12:46:19;20.30;99.90
7572;DHT22;3827;49.928;8.548;2023-05-24T12:48:46;19.80;99.90
7572;DHT22;3827;49.928;8.548;2023-05-24T12:51:13;19.40;99.90
7572;DHT22;3827;49.928;8.548;2023-05-24T12:53:41;19.50;99.90
7572;DHT22;3827;49.928;8.548;2023-05-24T12:56:09;18.90;99.90
7572;DHT22;3827;49.928;8.548;2023-05-24T12:58:36;18.80;99.90
7572;DHT22;3827;49.928;8.548;2023-05-24T13:01:02;19.10;99.90
7572;DHT22;3827;49.928;8.548;2023-05-24T13:03:29;19.40;99.90
7572;DHT22;3827;49.928;8.548;2023-05-24T13:05:57;20.30;99.90
7572;DHT22;3827;49.928;8.548;2023-05-24T13:08:25;20.50;99.90
7572;DHT22;3827;49.928;8.548;2023-05-24T13:10:54;20.70;99.90
7572;DHT22;3827;49.928;8.548;2023-05-24T13:13:21;20.70;99.90
7572;DHT22;3827;49.928;8.548;2023-05-24T13:15:49;20.50;99.90
7572;DHT22;3827;49.928;8.548;2023-05-24T13:18:16;19.80;99.90
7572;DHT22;3827;49.928;8.548;2023-05-24T13:20:43;19.40;99.90
7572;DHT22;3827;49.928;8.548;2023-05-24T13:23:10;19.30;99.90
7572;DHT22;3827;49.928;8.548;2023-05-24T13:25:37;18.80;99.90
7572;DHT22;3827;49.928;8.548;2023-05-24T13:28:05;18.20;99.90
7572;DHT22;3827;49.928;8.548;2023-05-24T13:30:32;18.30;99.90
7572;DHT22;3827;49.928;8.548;2023-05-24T13:33:00;19.50;99.90
7572;DHT22;3827;49.928;8.548;2023-05-24T13:35:28;19.20;99.90
7572;DHT22;3827;49.928;8.548;2023-05-24T13:37:55;19.60;99.90
7572;DHT22;3827;49.928;8.548;2023-05-24T13:40:23;19.80;99.90
7572;DHT22;3827;49.928;8.548;2023-05-24T13:42:50;19.50;99.90
7572;DHT22;3827;49.928;8.548;2023-05-24T13:45:19;19.90;99.90
7572;DHT22;3827;49.928;8.548;2023-05-24T13:47:47;18.90;99.90
7572;DHT22;3827;49.928;8.548;2023-05-24T13:50:14;18.60;99.90
7572;DHT22;3827;49.928;8.548;2023-05-24T13:52:41;18.10;99.90
7572;DHT22;3827;49.928;8.548;2023-05-24T13:55:08;18.30;99.90
7572;DHT22;3827;49.928;8.548;2023-05-24T13:57:36;18.20;99.90
7572;DHT22;3827;49.928;8.548;2023-05-24T14:00:04;17.90;99.90
7572;DHT22;3827;49.928;8.548;2023-05-24T14:02:34;18.20;99.90
7572;DHT22;3827;49.928;8.548;2023-05-24T14:05:01;18.40;99.90
7572;DHT22;3827;49.928;8.548;2023-05-24T14:07:28;18.00;99.90
7572;DHT22;3827;49.928;8.548;2023-05-24T14:09:55;17.70;99.90
7572;DHT22;3827;49.928;8.548;2023-05-24T14:12:22;17.30;99.90
7572;DHT22;3827;49.928;8.548;2023-05-24T14:14:49;17.60;99.90
7572;DHT22;3827;49.928;8.548;2023-05-24T14:17:16;17.70;99.90
7572;DHT22;3827;49.928;8.548;2023-05-24T14:19:44;18.00;99.90
7572;DHT22;3827;49.928;8.548;2023-05-24T14:22:11;17.90;99.90
7572;DHT22;3827;49.928;8.548;2023-05-24T14:24:37;17.90;99.90
7572;DHT22;3827;49.928;8.548;2023-05-24T14:27:05;18.00;99.90
7572;DHT22;3827;49.928;8.548;2023-05-24T14:29:32;19.20;99.90
7572;DHT22;3827;49.928;8.548;2023-05-24T14:31:59;19.90;99.90
7572;DHT22;3827;49.928;8.548;2023-05-24T14:34:26;20.30;99.90
7572;DHT22;3827;49.928;8.548;2023-05-24T14:36:54;20.70;99.90
7572;DHT22;3827;49.928;8.548;2023-05-24T14:39:21;20.50;99.90
7572;DHT22;3827;49.928;8.548;2023-05-24T14:41:48;20.00;99.90
7572;DHT22;3827;49.928;8.548;2023-05-24T14:44:15;19.70;99.90
7572;DHT22;3827;49.928;8.548;2023-05-24T14:46:44;19.60;99.90
7572;DHT22;3827;49.928;8.548;2023-05-24T14:49:11;19.40;99.90
7572;DHT22;3827;49.928;8.548;2023-05-24T14:51:38;19.80;99.90
7572;DHT22;3827;49.928;8.548;2023-05-24T14:54:09;19.60;99.90
7572;DHT22;3827;49.928;8.548;2023-05-24T14:56:36;20.00;99.90
7572;DHT22;3827;49.928;8.548;2023-05-24T14:59:03;20.40;99.90
7572;DHT22;3827;49.928;8.548;2023-05-24T15:01:30;20.60;99.90
7572;DHT22;3827;49.928;8.548;2023-05-24T15:03:57;20.10;99.90
7572;DHT22;3827;49.928;8.548;2023-05-24T15:06:24;19.50;99.90
7572;DHT22;3827;49.928;8.548;2023-05-24T15:08:51;18.10;99.90
7572;DHT22;3827;49.928;8.548;2023-05-24T15:11:19;17.50;99.90
7572;DHT22;3827;49.928;8.548;2023-05-24T15:13:47;17.00;99.90
7572;DHT22;3827;49.928;8.548;2023-05-24T15:16:14;17.30;99.90
7572;DHT22;3827;49.928;8.548;2023-05-24T15:18:41;18.30;99.90
7572;DHT22;3827;49.928;8.548;2023-05-24T15:21:08;18.80;99.90
7572;DHT22;3827;49.928;8.548;2023-05-24T15:23:35;18.80;99.90
7572;DHT22;3827;49.928;8.548;2023-05-24T15:26:02;18.50;99.90
7572;DHT22;3827;49.928;8.548;2023-05-24T15:28:30;18.40;99.90
7572;DHT22;3827;49.928;8.548;2023-05-24T15:30:57;18.60;99.90
7572;DHT22;3827;49.928;8.548;2023-05-24T15:33:26;18.70;99.90
7572;DHT22;3827;49.928;8.548;2023-05-24T15:35:53;18.90;99.90
7572;DHT22;3827;49.928;8.548;2023-05-24T15:38:21;19.00;99.90
7572;DHT22;3827;49.928;8.548;2023-05-24T15:40:48;18.60;99.90
7572;DHT22;3827;49.928;8.548;2023-05-24T15:43:17;18.70;99.90
7572;DHT22;3827;49.928;8.548;2023-05-24T15:45:46;19.00;99.90
7572;DHT22;3827;49.928;8.548;2023-05-24T15:48:13;19.20;99.90
7572;DHT22;3827;49.928;8.548;2023-05-24T15:50:40;19.50;99.90
7572;DHT22;3827;49.928;8.548;2023-05-24T15:53:07;19.80;99.90
7572;DHT22;3827;49.928;8.548;2023-05-24T15:55:33;19.60;99.90
7572;DHT22;3827;49.928;8.548;2023-05-24T15:58:01;19.60;99.90
7572;DHT22;3827;49.928;8.548;2023-05-24T16:00:28;19.60;99.90
7572;DHT22;3827;49.928;8.548;2023-05-24T16:02:56;19.30;99.90
7572;DHT22;3827;49.928;8.548;2023-05-24T16:05:23;18.50;99.90
7572;DHT22;3827;49.928;8.548;2023-05-24T16:07:51;18.60;99.90
7572;DHT22;3827;49.928;8.548;2023-05-24T16:10:18;18.50;99.90
7572;DHT22;3827;49.928;8.548;2023-05-24T16:12:45;18.50;99.90
7572;DHT22;3827;49.928;8.548;2023-05-24T16:17:44;18.00;99.90
7572;DHT22;3827;49.928;8.548;2023-05-24T16:20:12;18.10;99.90